createdAt,value
2022-10-01T14:12:52.154Z,2.83
2022-10-01T14:15:42.682Z,2.47
2022-10-01T14:18:23.644Z,3.13
2022-10-01T14:21:08.816Z,3.20
2022-10-01T14:23:46.652Z,3.05
2022-10-01T14:26:21.769Z,3.00
2022-10-01T14:31:50.113Z,2.42
2022-10-01T14:34:46.500Z,2.40
2022-10-01T14:37:18.127Z,2.58
2022-10-01T14:39:45.783Z,2.15
2022-10-01T14:42:18.056Z,1.85
2022-10-01T14:44:46.954Z,2.15
2022-10-01T14:47:21.218Z,2.08
2022-10-01T14:49:49.922Z,2.30
2022-10-01T14:52:32.285Z,2.72
2022-10-01T14:55:12.966Z,2.08
2022-10-01T14:57:51.188Z,2.30
2022-10-01T15:00:28.870Z,2.10
2022-10-01T15:03:04.430Z,2.35
2022-10-01T15:05:37.455Z,1.90
2022-10-01T15:08:35.743Z,2.35
2022-10-01T15:11:10.258Z,2.20
2022-10-01T15:13:41.983Z,1.60
2022-10-01T15:16:19.054Z,1.52
2022-10-01T15:18:53.548Z,1.48
2022-10-01T15:21:27.113Z,1.33
2022-10-01T15:23:54.644Z,1.60
2022-10-01T15:26:30.264Z,1.50
2022-10-01T15:29:11.581Z,1.50
2022-10-01T15:31:39.636Z,1.08
2022-10-01T15:34:12.203Z,1.00
2022-10-01T15:36:41.266Z,0.80
2022-10-01T15:39:27.573Z,0.60
2022-10-01T15:41:56.841Z,0.65
2022-10-01T15:44:46.462Z,0.60
2022-10-01T15:47:33.064Z,0.90
2022-10-01T15:50:08.589Z,0.80
2022-10-01T15:53:03.433Z,1.00
2022-10-01T15:55:34.138Z,1.20
2022-10-01T15:58:11.554Z,0.93
2022-10-01T16:00:50.203Z,1.00
2022-10-01T16:03:27.708Z,1.20
2022-10-01T16:05:56.336Z,1.33
2022-10-01T16:08:34.156Z,1.00
2022-10-01T16:11:13.681Z,1.42
2022-10-01T16:13:44.884Z,1.20
2022-10-01T16:16:15.263Z,1.27
2022-10-01T16:18:43.258Z,1.38
2022-10-01T16:21:11.502Z,1.15
2022-10-01T16:23:49.654Z,1.40
2022-10-01T16:26:36.187Z,1.42
2022-10-01T16:29:30.242Z,1.50
2022-10-01T16:32:01.591Z,1.48
2022-10-01T16:34:28.796Z,1.35
2022-10-01T16:36:58.881Z,1.60
2022-10-01T16:39:25.987Z,1.38
2022-10-01T16:42:19.147Z,1.42
2022-10-01T16:44:42.192Z,1.50
2022-10-01T16:47:11.891Z,1.20
2022-10-01T16:49:38.738Z,1.30
2022-10-01T16:52:06.241Z,1.25
2022-10-01T16:54:33.563Z,1.40
2022-10-01T16:57:01.952Z,1.50
2022-10-01T16:59:28.857Z,1.95
2022-10-01T17:01:57.390Z,1.63
2022-10-01T17:04:29.235Z,1.88
2022-10-01T17:06:58.756Z,1.80
2022-10-01T17:09:25.590Z,1.50
2022-10-01T17:11:52.571Z,1.52
2022-10-01T17:14:21.249Z,1.50
2022-10-01T17:16:50.465Z,1.30
2022-10-01T17:19:18.407Z,1.52
2022-10-01T17:21:46.581Z,1.48
2022-10-01T17:24:13.729Z,1.65
2022-10-01T17:26:43.162Z,1.77
2022-10-01T17:29:10.301Z,1.73
2022-10-01T17:31:44.767Z,1.40
2022-10-01T17:34:11.994Z,1.45
2022-10-01T17:36:39.827Z,1.00
2022-10-01T17:39:06.776Z,0.85
2022-10-01T17:41:33.945Z,0.90
2022-10-01T17:44:01.177Z,1.02
2022-10-01T17:46:43.499Z,1.10
2022-10-01T17:49:10.441Z,1.45
2022-10-01T17:51:37.440Z,1.35
2022-10-01T17:54:04.926Z,1.40
2022-10-01T17:56:32.898Z,1.35
2022-10-01T17:59:00.293Z,1.40
2022-10-01T18:01:27.961Z,1.20
2022-10-01T18:03:56.058Z,1.42
2022-10-01T18:06:26.269Z,1.13
2022-10-01T18:08:56.180Z,1.10
2022-10-01T18:11:27.534Z,1.33
2022-10-01T18:13:54.550Z,1.48
2022-10-01T18:16:21.924Z,1.20
2022-10-01T18:21:42.234Z,1.10
2022-10-01T18:24:09.135Z,1.00
2022-10-01T18:26:36.839Z,1.10
2022-10-01T18:29:04.499Z,1.05
2022-10-01T18:31:40.978Z,1.20
2022-10-01T18:34:22.536Z,1.30
2022-10-01T18:37:05.423Z,1.00
2022-10-01T18:39:49.938Z,0.93
2022-10-01T18:42:29.220Z,1.07
2022-10-01T18:44:59.851Z,1.20
2022-10-01T18:47:54.572Z,1.13
2022-10-01T18:50:45.956Z,1.33
2022-10-01T18:53:47.447Z,1.20
2022-10-01T18:56:17.348Z,1.50
2022-10-01T18:59:08.231Z,0.88
2022-10-01T19:02:01.901Z,1.23
2022-10-01T19:05:42.148Z,1.50
2022-10-01T19:08:58.973Z,0.98
2022-10-01T19:11:42.158Z,1.30
2022-10-01T19:14:56.026Z,0.95
2022-10-01T19:17:38.014Z,1.17
2022-10-01T19:20:20.674Z,0.95
2022-10-01T19:23:19.474Z,1.30
2022-10-01T19:26:26.362Z,1.40
2022-10-01T19:29:25.813Z,1.20
2022-10-01T19:32:02.810Z,1.20
2022-10-01T19:34:46.380Z,1.02
2022-10-01T19:37:37.876Z,1.00
2022-10-01T19:40:17.536Z,0.82
2022-10-01T19:43:00.859Z,1.23
2022-10-01T19:46:04.700Z,1.23
2022-10-01T19:49:06.409Z,1.10
2022-10-01T19:51:50.246Z,1.23
2022-10-01T19:54:22.520Z,1.50
2022-10-01T19:56:56.905Z,1.10
2022-10-01T19:59:24.017Z,1.33
2022-10-01T20:02:35.285Z,1.10
2022-10-01T20:05:12.690Z,1.10
2022-10-01T20:08:01.439Z,1.20
2022-10-01T20:10:57.315Z,1.30
2022-10-01T20:16:24.064Z,1.20
2022-10-01T20:19:11.691Z,1.48
2022-10-01T20:21:58.345Z,1.30
2022-10-01T20:24:56.024Z,1.10
2022-10-01T20:28:00.541Z,1.40
2022-10-01T20:30:33.311Z,1.50
2022-10-01T20:39:34.533Z,1.30
2022-10-01T20:44:35.420Z,1.30
2022-10-01T20:47:20.036Z,1.48
2022-10-01T20:49:56.659Z,1.20
2022-10-01T20:52:37.570Z,1.73
2022-10-01T20:55:14.098Z,1.73
2022-10-01T20:58:04.321Z,1.20
2022-10-01T21:00:31.502Z,1.27
2022-10-01T21:03:32.030Z,1.70
2022-10-01T21:06:14.135Z,1.10
2022-10-01T21:09:07.614Z,1.17
2022-10-01T21:11:49.825Z,1.30
2022-10-01T21:14:37.344Z,1.20
2022-10-01T21:18:00.843Z,1.10
2022-10-01T21:21:23.311Z,1.38
2022-10-01T21:24:10.075Z,1.40
2022-10-01T21:27:06.754Z,1.27
2022-10-01T21:30:11.726Z,1.30
2022-10-01T21:33:02.087Z,1.88
2022-10-01T21:36:01.880Z,2.03
2022-10-01T21:39:00.097Z,1.60
2022-10-01T21:42:07.701Z,1.30
2022-10-01T21:45:02.274Z,2.35
2022-10-01T21:47:41.068Z,1.63
2022-10-01T21:50:36.913Z,1.60
2022-10-01T21:56:15.912Z,1.50
2022-10-01T21:59:13.205Z,1.95
2022-10-01T22:02:03.292Z,1.50
2022-10-01T22:04:56.787Z,1.30
2022-10-01T22:07:35.517Z,1.55
2022-10-01T22:10:38.422Z,2.03
2022-10-01T22:13:22.843Z,1.50
2022-10-01T22:15:56.632Z,1.73
2022-10-01T22:18:35.634Z,1.40
2022-10-01T22:21:11.437Z,1.20
2022-10-01T22:23:46.220Z,1.45
2022-10-01T22:26:24.921Z,1.33
2022-10-01T22:28:55.911Z,1.52
2022-10-01T22:31:30.738Z,1.50
2022-10-01T22:34:31.997Z,1.10
2022-10-01T22:37:12.761Z,1.50
2022-10-01T22:39:50.146Z,1.27
2022-10-01T22:42:28.853Z,1.42
2022-10-01T22:45:01.384Z,1.50
2022-10-01T22:48:19.442Z,1.00
2022-10-01T22:51:04.651Z,1.42
2022-10-01T22:54:09.234Z,1.40
2022-10-01T22:57:07.359Z,1.30
2022-10-01T22:59:42.081Z,1.23
2022-10-01T23:02:32.791Z,1.70
2022-10-01T23:05:34.336Z,1.58
2022-10-01T23:08:44.709Z,1.20
2022-10-01T23:11:24.817Z,2.10
2022-10-01T23:14:32.319Z,1.20
2022-10-01T23:17:14.455Z,1.52
2022-10-01T23:20:32.999Z,1.35
2022-10-01T23:23:16.507Z,1.45
2022-10-01T23:26:09.759Z,1.20
2022-10-01T23:29:02.269Z,1.10
2022-10-01T23:32:10.755Z,1.48
2022-10-01T23:35:29.387Z,1.60
2022-10-01T23:38:37.301Z,1.33
2022-10-01T23:41:18.956Z,1.00
2022-10-01T23:43:49.884Z,1.30
2022-10-01T23:46:29.157Z,1.40
2022-10-01T23:49:26.633Z,1.80
2022-10-01T23:52:15.865Z,1.65
2022-10-01T23:55:20.240Z,1.20
2022-10-01T23:57:52.739Z,1.40
